createdAt,value
2019-03-23T00:02:51.245Z,78.69
2019-03-23T00:06:05.260Z,79.48
2019-03-23T00:09:19.455Z,79.90
2019-03-23T00:12:39.497Z,80.21
2019-03-23T00:15:53.492Z,79.90
2019-03-23T00:19:07.488Z,79.75
2019-03-23T00:22:21.477Z,79.65
2019-03-23T00:25:35.611Z,79.45
2019-03-23T00:28:50.040Z,79.47
2019-03-23T00:32:04.263Z,79.82
2019-03-23T00:35:18.276Z,79.84
2019-03-23T00:38:32.265Z,80.77
2019-03-23T00:41:46.264Z,80.29
2019-03-23T00:45:00.356Z,80.04
2019-03-23T00:48:14.478Z,80.36
2019-03-23T00:51:28.477Z,80.22
2019-03-23T00:54:42.747Z,80.33
2019-03-23T00:57:56.797Z,80.42
2019-03-23T01:01:11.131Z,79.98
2019-03-23T01:04:25.145Z,79.76
2019-03-23T01:07:39.364Z,79.71
2019-03-23T01:10:53.385Z,79.86
2019-03-23T01:14:07.710Z,80.16
2019-03-23T01:17:21.721Z,80.45
2019-03-23T01:20:36.327Z,80.42
2019-03-23T01:23:50.640Z,80.34
2019-03-23T01:27:04.850Z,80.30
2019-03-23T01:30:19.251Z,80.59
2019-03-23T01:33:33.545Z,80.57
2019-03-23T01:36:47.577Z,80.57
2019-03-23T01:40:01.895Z,80.67
2019-03-23T01:43:16.278Z,80.62
2019-03-23T01:46:30.298Z,80.69
2019-03-23T01:49:44.301Z,80.87
2019-03-23T01:52:58.423Z,81.45
2019-03-23T01:56:12.451Z,81.02
2019-03-23T01:59:26.732Z,81.11
2019-03-23T02:02:40.746Z,81.00
2019-03-23T02:05:54.794Z,81.59
2019-03-23T02:09:08.803Z,81.36
2019-03-23T02:12:23.370Z,81.34
2019-03-23T02:15:37.719Z,80.99
2019-03-23T02:18:51.992Z,80.83
2019-03-23T02:22:06.030Z,81.10
2019-03-23T02:25:20.841Z,81.38
2019-03-23T02:28:34.962Z,81.31
2019-03-23T02:31:49.212Z,81.36
2019-03-23T02:35:03.769Z,81.41
2019-03-23T02:38:17.834Z,81.60
2019-03-23T02:41:31.842Z,81.64
2019-03-23T02:44:45.831Z,81.97
2019-03-23T02:48:00.241Z,81.85
2019-03-23T02:51:14.263Z,81.42
2019-03-23T02:54:28.317Z,81.67
2019-03-23T02:57:42.345Z,81.98
2019-03-23T03:00:56.358Z,81.70
2019-03-23T03:04:10.359Z,81.92
2019-03-23T03:07:24.755Z,82.11
2019-03-23T03:10:39.837Z,82.35
2019-03-23T03:13:54.084Z,82.59
2019-03-23T03:17:08.423Z,82.52
2019-03-23T03:20:22.431Z,82.35
2019-03-23T03:23:36.765Z,82.39
2019-03-23T03:26:50.779Z,82.53
2019-03-23T03:30:05.417Z,82.64
2019-03-23T03:33:19.747Z,82.49
2019-03-23T03:36:34.155Z,82.41
2019-03-23T03:39:48.209Z,82.36
2019-03-23T03:43:02.717Z,82.66
2019-03-23T03:46:16.751Z,82.74
2019-03-23T03:49:30.777Z,83.43
2019-03-23T03:52:45.481Z,83.28
2019-03-23T03:55:59.588Z,83.08
2019-03-23T03:59:13.704Z,82.95
2019-03-23T04:02:27.820Z,82.96
2019-03-23T04:05:41.967Z,82.91
2019-03-23T04:08:56.002Z,82.43
2019-03-23T04:12:10.017Z,82.25
2019-03-23T04:15:24.011Z,82.11
2019-03-23T04:18:38.059Z,82.53
2019-03-23T04:21:52.199Z,82.64
2019-03-23T04:25:07.639Z,82.74
2019-03-23T04:28:21.646Z,82.89
2019-03-23T04:31:35.771Z,82.88
2019-03-23T04:34:49.811Z,83.31
2019-03-23T04:38:03.930Z,83.11
2019-03-23T04:41:18.394Z,83.50
2019-03-23T04:44:32.405Z,83.02
2019-03-23T04:47:46.426Z,83.49
2019-03-23T04:51:00.421Z,83.56
2019-03-23T04:54:14.446Z,83.12
2019-03-23T04:57:28.813Z,83.55
2019-03-23T05:00:42.916Z,82.90
2019-03-23T05:03:56.942Z,82.95
2019-03-23T05:07:11.393Z,82.39
2019-03-23T05:10:25.408Z,82.59
2019-03-23T05:13:39.825Z,82.82
2019-03-23T05:16:53.983Z,83.24
2019-03-23T05:20:09.093Z,83.41
2019-03-23T05:23:23.229Z,83.68
2019-03-23T05:26:37.227Z,83.77
2019-03-23T05:29:51.285Z,83.96
2019-03-23T05:33:05.696Z,83.86
2019-03-23T05:36:20.107Z,84.13
2019-03-23T05:39:34.106Z,84.30
2019-03-23T05:42:48.233Z,84.01
2019-03-23T05:46:02.444Z,83.60
2019-03-23T05:49:16.887Z,83.54
2019-03-23T05:52:30.896Z,83.36
2019-03-23T05:55:45.785Z,83.41
2019-03-23T05:59:00.121Z,83.15
2019-03-23T06:02:14.437Z,83.14
2019-03-23T06:05:28.883Z,83.21
2019-03-23T06:08:43.200Z,83.64
2019-03-23T06:11:57.327Z,83.48
2019-03-23T06:15:11.516Z,83.58
2019-03-23T06:18:25.786Z,83.70
2019-03-23T06:21:39.778Z,83.70
2019-03-23T06:24:53.805Z,84.18
2019-03-23T06:28:07.820Z,84.01
2019-03-23T06:31:21.827Z,83.82
2019-03-23T06:34:36.127Z,83.42
2019-03-23T06:37:50.278Z,83.61
2019-03-23T06:41:04.271Z,83.59
2019-03-23T06:44:18.523Z,83.60
2019-03-23T06:47:32.687Z,83.59
2019-03-23T06:50:46.738Z,83.25
2019-03-23T06:54:00.986Z,83.18
2019-03-23T06:57:15.302Z,83.29
2019-03-23T07:00:29.426Z,83.12
2019-03-23T07:03:43.421Z,82.94
2019-03-23T07:06:57.414Z,83.21
2019-03-23T07:10:12.375Z,83.01
2019-03-23T07:13:26.408Z,82.61
2019-03-23T07:16:42.152Z,81.94
2019-03-23T07:19:56.578Z,81.62
2019-03-23T07:23:10.600Z,81.36
2019-03-23T07:26:24.943Z,81.17
2019-03-23T07:29:39.771Z,80.64
2019-03-23T07:32:54.214Z,80.35
2019-03-23T07:36:08.248Z,80.14
2019-03-23T07:39:27.329Z,80.11
2019-03-23T07:42:38.638Z,79.51
2019-03-23T07:45:52.672Z,78.71
2019-03-23T07:49:06.705Z,78.26
2019-03-23T07:52:20.940Z,77.68
2019-03-23T07:55:35.340Z,77.07
2019-03-23T07:58:49.620Z,76.18
2019-03-23T08:02:04.106Z,75.11
2019-03-23T08:05:19.577Z,73.26
2019-03-23T08:08:33.607Z,73.58
2019-03-23T08:11:47.609Z,72.66
2019-03-23T08:15:01.973Z,72.20
2019-03-23T08:18:15.993Z,68.71
2019-03-23T08:21:30.020Z,63.44
2019-03-23T08:24:44.092Z,63.65
2019-03-23T08:27:58.083Z,61.23
2019-03-23T08:31:12.103Z,60.07
2019-03-23T08:34:26.109Z,56.78
2019-03-23T08:37:40.108Z,57.13
2019-03-23T08:40:54.107Z,55.34
2019-03-23T08:44:08.458Z,54.96
2019-03-23T08:47:22.466Z,55.81
2019-03-23T08:50:36.571Z,53.92
2019-03-23T08:53:50.832Z,53.86
2019-03-23T08:57:04.860Z,52.52
2019-03-23T09:00:19.100Z,52.89
2019-03-23T09:03:33.240Z,51.51
2019-03-23T09:06:47.650Z,50.94
2019-03-23T09:10:02.368Z,50.90
2019-03-23T09:13:16.371Z,49.75
2019-03-23T09:16:30.406Z,49.27
2019-03-23T09:19:44.841Z,49.39
2019-03-23T09:22:58.865Z,48.82
2019-03-23T09:26:13.789Z,49.39
2019-03-23T09:29:27.899Z,48.71
2019-03-23T09:32:42.037Z,48.57
2019-03-23T09:35:56.051Z,47.27
2019-03-23T09:39:10.323Z,46.20
2019-03-23T09:42:24.349Z,45.33
2019-03-23T09:45:39.033Z,45.41
2019-03-23T09:48:53.042Z,46.26
2019-03-23T09:52:07.290Z,45.09
2019-03-23T09:55:21.291Z,44.57
2019-03-23T09:58:35.317Z,44.36
2019-03-23T10:01:49.326Z,42.79
2019-03-23T10:05:04.633Z,41.74
2019-03-23T10:08:18.773Z,42.32
2019-03-23T10:11:32.823Z,42.39
2019-03-23T10:14:46.836Z,41.44
2019-03-23T10:18:01.733Z,40.80
2019-03-23T10:21:15.925Z,40.77
2019-03-23T10:24:30.217Z,38.81
2019-03-23T10:27:44.918Z,39.11
2019-03-23T10:30:58.925Z,38.97
2019-03-23T10:34:12.948Z,38.92
2019-03-23T10:37:27.079Z,39.07
2019-03-23T10:40:42.903Z,37.86
2019-03-23T10:43:57.077Z,37.88
2019-03-23T10:47:11.514Z,37.08
2019-03-23T10:50:25.876Z,37.74
2019-03-23T10:53:40.252Z,36.97
2019-03-23T10:56:54.391Z,36.11
2019-03-23T11:00:09.704Z,36.27
2019-03-23T11:03:23.731Z,37.17
2019-03-23T11:06:38.001Z,37.00
2019-03-23T11:09:52.058Z,36.17
2019-03-23T11:13:06.096Z,34.28
2019-03-23T11:16:20.119Z,33.35
2019-03-23T11:19:34.138Z,34.29
2019-03-23T11:22:48.371Z,35.62
2019-03-23T11:26:02.502Z,35.90
2019-03-23T11:29:16.518Z,35.16
2019-03-23T11:32:30.544Z,34.09
2019-03-23T11:35:44.567Z,33.68
2019-03-23T11:38:58.851Z,32.98
2019-03-23T11:42:13.226Z,34.52
2019-03-23T11:45:27.525Z,34.16
2019-03-23T11:48:41.545Z,34.36
2019-03-23T11:51:56.206Z,35.15
2019-03-23T11:55:10.457Z,34.41
2019-03-23T11:58:24.799Z,33.94
2019-03-23T12:01:38.849Z,32.95
2019-03-23T12:04:52.904Z,35.00
2019-03-23T12:08:07.200Z,34.02
2019-03-23T12:11:21.761Z,33.28
2019-03-23T12:14:35.827Z,33.38
2019-03-23T12:17:49.838Z,32.25
2019-03-23T12:21:04.142Z,31.99
2019-03-23T12:24:18.202Z,31.24
2019-03-23T12:27:32.227Z,31.18
2019-03-23T12:30:46.935Z,33.08
2019-03-23T12:34:00.975Z,32.68
2019-03-23T12:37:15.010Z,34.73
2019-03-23T12:40:29.040Z,34.49
2019-03-23T12:43:43.654Z,35.03
2019-03-23T12:46:57.705Z,34.44
2019-03-23T12:50:12.354Z,34.78
2019-03-23T12:53:26.725Z,34.52
2019-03-23T12:56:40.922Z,34.79
2019-03-23T12:59:55.177Z,34.92
2019-03-23T13:03:09.322Z,33.99
2019-03-23T13:06:23.691Z,33.09
2019-03-23T13:09:38.204Z,32.09
2019-03-23T13:12:52.257Z,31.21
2019-03-23T13:16:06.855Z,30.14
2019-03-23T13:19:21.247Z,31.54
2019-03-23T13:22:35.423Z,32.60
2019-03-23T13:25:49.603Z,33.28
2019-03-23T13:29:03.928Z,31.45
2019-03-23T13:32:18.037Z,30.86
2019-03-23T13:35:32.091Z,30.42
2019-03-23T13:38:46.609Z,31.21
2019-03-23T13:42:01.270Z,32.56
2019-03-23T13:45:15.537Z,32.17
2019-03-23T13:48:29.892Z,33.18
2019-03-23T13:51:44.089Z,32.41
2019-03-23T13:54:58.660Z,33.54
2019-03-23T13:58:13.632Z,34.17
2019-03-23T14:01:28.808Z,34.35
2019-03-23T14:04:43.006Z,33.40
2019-03-23T14:07:57.299Z,33.15
2019-03-23T14:11:11.337Z,34.61
2019-03-23T14:14:25.606Z,33.77
2019-03-23T14:17:40.055Z,32.83
2019-03-23T14:20:54.276Z,33.26
2019-03-23T14:24:08.869Z,33.90
2019-03-23T14:27:23.339Z,34.80
2019-03-23T14:30:37.442Z,34.75
2019-03-23T14:33:51.867Z,35.73
2019-03-23T14:37:06.028Z,36.39
2019-03-23T14:40:20.091Z,36.03
2019-03-23T14:43:34.229Z,35.82
2019-03-23T14:46:48.373Z,34.75
2019-03-23T14:50:02.681Z,34.56
2019-03-23T14:53:16.739Z,37.17
2019-03-23T14:56:31.976Z,36.72
2019-03-23T14:59:46.265Z,37.53
2019-03-23T15:03:00.668Z,38.35
2019-03-23T15:06:15.081Z,37.75
2019-03-23T15:09:29.127Z,38.73
2019-03-23T15:12:43.500Z,38.78
2019-03-23T15:15:58.075Z,39.71
2019-03-23T15:19:12.148Z,40.24
2019-03-23T15:22:26.429Z,40.79
2019-03-23T15:25:40.758Z,42.40
2019-03-23T15:28:54.896Z,43.10
2019-03-23T15:32:08.998Z,43.46
2019-03-23T15:35:23.675Z,45.47
2019-03-23T15:38:37.960Z,45.88
2019-03-23T15:41:52.090Z,46.13
2019-03-23T15:45:08.020Z,47.00
2019-03-23T15:48:22.069Z,46.59
2019-03-23T15:51:36.335Z,46.30
2019-03-23T15:54:51.299Z,45.36
2019-03-23T15:58:05.474Z,45.21
2019-03-23T16:01:19.698Z,46.22
2019-03-23T16:04:34.375Z,47.35
2019-03-23T16:07:48.458Z,47.73
2019-03-23T16:11:02.862Z,48.94
2019-03-23T16:14:17.044Z,49.63
2019-03-23T16:17:31.184Z,50.10
2019-03-23T16:20:45.302Z,51.64
2019-03-23T16:23:59.539Z,52.74
2019-03-23T16:27:13.627Z,53.75
2019-03-23T16:30:29.406Z,54.79
2019-03-23T16:33:43.506Z,54.85
2019-03-23T16:36:57.707Z,55.37
2019-03-23T16:40:11.948Z,56.25
2019-03-23T16:43:26.412Z,56.30
2019-03-23T16:46:40.619Z,55.61
2019-03-23T16:49:54.672Z,56.78
2019-03-23T16:53:08.897Z,57.04
2019-03-23T16:56:22.943Z,57.27
2019-03-23T16:59:37.013Z,57.83
2019-03-23T17:02:51.965Z,58.42
2019-03-23T17:06:06.099Z,58.62
2019-03-23T17:09:20.441Z,58.68
2019-03-23T17:12:34.691Z,59.32
2019-03-23T17:15:49.074Z,60.27
2019-03-23T17:19:03.353Z,60.72
2019-03-23T17:22:17.722Z,60.80
2019-03-23T17:25:31.862Z,61.09
2019-03-23T17:28:45.913Z,61.28
2019-03-23T17:32:00.080Z,61.84
2019-03-23T17:35:14.173Z,62.18
2019-03-23T17:38:28.433Z,62.35
2019-03-23T17:41:43.137Z,63.13
2019-03-23T17:44:57.192Z,63.16
2019-03-23T17:48:11.452Z,63.83
2019-03-23T17:51:25.865Z,64.37
2019-03-23T17:54:39.988Z,64.97
2019-03-23T17:57:54.014Z,65.61
2019-03-23T18:01:19.037Z,66.14
2019-03-23T18:04:26.718Z,66.42
2019-03-23T18:07:41.092Z,66.88
2019-03-23T18:10:55.210Z,67.84
2019-03-23T18:14:09.827Z,68.33
2019-03-23T18:17:25.172Z,68.53
2019-03-23T18:20:39.538Z,69.23
2019-03-23T18:23:53.675Z,69.29
2019-03-23T18:27:08.131Z,69.73
2019-03-23T18:30:38.090Z,70.42
2019-03-23T18:33:52.112Z,70.77
2019-03-23T18:37:06.225Z,70.77
2019-03-23T18:40:20.353Z,70.85
2019-03-23T18:43:34.587Z,71.10
2019-03-23T18:46:49.012Z,71.31
2019-03-23T18:50:03.800Z,71.61
2019-03-23T18:53:18.354Z,71.89
2019-03-23T18:56:32.476Z,72.01
2019-03-23T18:59:47.144Z,72.27
2019-03-23T19:03:01.631Z,72.94
2019-03-23T19:06:15.659Z,73.08
2019-03-23T19:09:29.682Z,72.79
2019-03-23T19:12:43.710Z,72.41
2019-03-23T19:15:57.728Z,71.82
2019-03-23T19:19:12.147Z,71.93
2019-03-23T19:22:26.182Z,72.77
2019-03-23T19:25:40.416Z,73.82
2019-03-23T19:28:54.503Z,73.66
2019-03-23T19:32:08.520Z,72.98
2019-03-23T19:35:22.662Z,72.60
2019-03-23T19:38:36.940Z,72.61
2019-03-23T19:41:50.971Z,73.55
2019-03-23T19:45:05.460Z,73.71
2019-03-23T19:48:19.568Z,74.14
2019-03-23T19:51:33.945Z,74.17
2019-03-23T19:54:48.375Z,74.16
2019-03-23T19:58:03.943Z,74.33
2019-03-23T20:01:17.953Z,73.92
2019-03-23T20:04:32.127Z,74.16
2019-03-23T20:07:46.192Z,74.82
2019-03-23T20:11:00.476Z,75.63
2019-03-23T20:14:14.495Z,75.87
2019-03-23T20:17:28.514Z,76.01
2019-03-23T20:20:42.551Z,76.11
2019-03-23T20:23:56.664Z,75.81
2019-03-23T20:27:11.008Z,75.80
2019-03-23T20:30:25.378Z,76.02
2019-03-23T20:33:39.414Z,76.33
2019-03-23T20:36:53.622Z,76.42
2019-03-23T20:40:08.175Z,76.80
2019-03-23T20:43:22.195Z,77.07
2019-03-23T20:46:36.421Z,77.52
2019-03-23T20:49:51.817Z,77.88
2019-03-23T20:53:06.491Z,78.02
2019-03-23T20:56:20.497Z,78.39
2019-03-23T20:59:34.499Z,78.30
2019-03-23T21:02:48.636Z,78.25
2019-03-23T21:06:03.186Z,78.20
2019-03-23T21:09:17.211Z,78.67
2019-03-23T21:12:31.231Z,78.44
2019-03-23T21:15:45.234Z,78.39
2019-03-23T21:18:59.293Z,78.49
2019-03-23T21:22:13.356Z,78.36
2019-03-23T21:25:27.390Z,78.71
2019-03-23T21:28:41.706Z,78.83
2019-03-23T21:31:55.708Z,79.43
2019-03-23T21:35:10.467Z,79.75
2019-03-23T21:38:24.578Z,80.22
2019-03-23T21:41:38.614Z,79.75
2019-03-23T21:44:52.657Z,79.20
2019-03-23T21:48:06.762Z,79.23
2019-03-23T21:51:20.875Z,80.14
2019-03-23T21:54:34.894Z,80.35
2019-03-23T21:57:48.957Z,80.26
2019-03-23T22:01:03.346Z,80.90
2019-03-23T22:04:17.557Z,81.23
2019-03-23T22:07:31.559Z,81.03
2019-03-23T22:10:45.579Z,81.26
2019-03-23T22:13:59.633Z,81.44
2019-03-23T22:17:13.751Z,81.58
2019-03-23T22:20:27.767Z,81.38
2019-03-23T22:23:42.267Z,81.50
2019-03-23T22:26:56.679Z,81.49
2019-03-23T22:30:11.605Z,81.37
2019-03-23T22:33:25.615Z,81.45
2019-03-23T22:36:39.618Z,81.98
2019-03-23T22:39:53.616Z,82.65
2019-03-23T22:43:08.034Z,83.14
2019-03-23T22:46:22.042Z,83.28
2019-03-23T22:49:36.050Z,82.74
2019-03-23T22:52:50.056Z,82.93
2019-03-23T22:56:04.196Z,83.26
2019-03-23T22:59:18.198Z,82.91
2019-03-23T23:02:32.314Z,82.81
2019-03-23T23:05:46.527Z,82.70
2019-03-23T23:09:00.549Z,82.87
2019-03-23T23:12:14.931Z,82.54
2019-03-23T23:15:28.932Z,82.71
2019-03-23T23:18:42.978Z,82.47
2019-03-23T23:21:57.011Z,82.55
2019-03-23T23:25:11.409Z,82.66
2019-03-23T23:28:25.812Z,83.06
2019-03-23T23:31:40.123Z,83.08
2019-03-23T23:34:54.330Z,83.05
2019-03-23T23:38:08.563Z,83.24
2019-03-23T23:41:22.675Z,83.35
2019-03-23T23:44:37.072Z,83.36
2019-03-23T23:47:51.527Z,84.05
2019-03-23T23:51:06.080Z,83.59
2019-03-23T23:54:20.093Z,83.09
2019-03-23T23:57:34.647Z,83.08
